Nalchik Airport
URMN : now visible

Airfield :











YOU CAN JOIN US ON...

 
LOGIN :

Register | Disclaimer

   EN    FR    IT 

 









Legend :    VFR   Marginal VFR   IFR   Intensive IFR   Very Intensive IFR
Visi :
Ceiling :
>= 8 km
>= 3000ft
5 to 8 km
1000 to 3000 ft
1500m to 5 km
500 to 1000 ft
800 to 1500m
200 to 500 ft
< 800m
< 200 ft
Symbols :   Thunderstorms  Fog  Heavy snow  Heavy precipitations  Wind > 20 kt






- Airport Elevation : 1461 ft
- IATA code : NAL


URMN - Nalchik

CURRENT METAR :
  • 040000Z 05001MPS 0500 R24/0650 -DZ FG VV002 00/00 Q1027 R24/////// NOSIG RMK QBB060 MT OBSC OBST OBSC QFE734

EXPIRED METARs :
  • 032300Z 05001MPS 0400 R24/0450 -DZ FG VV001 00/00 Q1027 R24/////// NOSIG RMK QBB050 MT OBSC OBST OBSC QFE733
  • 032200Z 07001MPS 0300 R24/0350 -DZ FG VV001 00/00 Q1027 R24/////// NOSIG RMK QBB040 MT OBSC OBST OBSC QFE734

TAF TAF URMN
Valid from the 04 at 00:00 until the 04 at 09:00 UTC


032300Z 0400/0409 07003MPS 0300 FZDZ FZFG OVC002
TEMPO 0400/0409 1200 BR OVC003
URRV FIR / Europe



MET'MAP, your aeronautical weather chart ! - Copyright ORBIFLY December 2007 - Disclaimer

ORBIFLY MET'MAP TEAM :

Programming & Development : Alexandra Zaïnal
Concept & original design : Baudouin d'Aumeries
Assistance for programming : Marc-Olivier Méhu
Technical & hardware support : Manuel Goepfert

Contact : metmap@orbifly.com




SOURCES & CREDITS :

   NOAA       Earth
Advisory